Milouin — FT9009 — position and weather

sailwx.info

Track history (hours):
 
Tides and Currents Weather Stations Pressure Air Temp Water Temp Dewpoint Dewpoint Depression Visibility Wind Speed Wind Dir Waves Ship Positions

Milouin

Last reported at 2015-Mar-24 06:13 UTC. Time now 2015-Mar-29 06:14 UTC.
Position N 47°17' W 002°01'.

Length 36 m; draft 2.5 m.

Type: Ship. MMSI: 227003190.

Date/timePositionNaut miles runAvg speedWind from/ knotsBaromVisibWave heightAir tempDewpointWater temp
2015-Mar-24 06:13N 47°17' W 002°01'0 0.0
2015-Mar-24 05:11N 47°17' W 002°01'0 0.0
2015-Mar-24 03:21N 47°17' W 002°01'0 0.0
2015-Mar-24 02:25N 47°17' W 002°01'0 0.0
2015-Mar-24 00:12N 47°17' W 002°01'4 0.2
2015-Mar-23 08:31N 47°18' W 002°06'0 0.0
2015-Mar-23 07:29N 47°18' W 002°06'0 0.0
2015-Mar-23 06:33N 47°18' W 002°06'4 0.1
2015-Mar-21 22:07N 47°17' W 002°01'4 0.3
2015-Mar-21 10:15N 47°18' W 002°07'0 0.0
2015-Mar-21 09:33N 47°18' W 002°07'0 0.1
2015-Mar-21 08:30N 47°18' W 002°07'0 0.0
2015-Mar-21 07:20N 47°18' W 002°07'4 0.1
2015-Mar-19 20:21N 47°17' W 002°01'0 0.0
2015-Mar-19 18:33N 47°17' W 002°01'8 0.8
2015-Mar-19 09:31N 47°15' W 001°51'0 0.3
2015-Mar-19 08:33N 47°14' W 001°51'2 1.7
2015-Mar-19 07:24N 47°16' W 001°52'4 4.7
2015-Mar-19 06:30N 47°17' W 001°58'2 2.1
2015-Mar-19 05:31N 47°17' W 002°01'0 0.0
2015-Mar-19 04:33N 47°17' W 002°01'0 0.0
2015-Mar-19 02:25N 47°17' W 002°01'0 0.0
2015-Mar-19 01:32N 47°17' W 002°01'0 0.0
2015-Mar-19 00:14N 47°17' W 002°01'0 0.0
2015-Mar-18 23:04N 47°17' W 002°01'0 0.0
2015-Mar-18 21:09N 47°17' W 002°01'2 0.2
2015-Mar-18 07:27N 47°18' W 002°04'2 1.7
2015-Mar-18 06:14N 47°17' W 002°01'0 0.0
2015-Mar-18 05:13N 47°17' W 002°01'0 0.0
2015-Mar-18 04:31N 47°17' W 002°01'0 0.0
2015-Mar-18 02:27N 47°17' W 002°01'0 0.0
2015-Mar-18 01:29N 47°17' W 002°01'0 0.0
2015-Mar-18 00:33N 47°17' W 002°01'0 0.0
2015-Mar-17 23:32N 47°17' W 002°01'0 0.0
2015-Mar-17 22:31N 47°17' W 002°01'0 0.0
2015-Mar-17 20:17N 47°17' W 002°01'12 1.0
2015-Mar-17 08:03N 47°12' W 001°46'0 0.0
2015-Mar-17 00:18N 47°12' W 001°46'0 0.0
2015-Mar-16 21:25N 47°12' W 001°46'4 0.3
2015-Mar-16 09:12N 47°12' W 001°41'4 0.8
2015-Mar-16 04:29N 47°12' W 001°46'0 0.0
2015-Mar-16 03:24N 47°12' W 001°46'17 0.4
2015-Mar-14 13:08N 47°18' W 002°09'  
Track history (hours):
 
Tides and Currents Weather Stations Pressure Air Temp Water Temp Dewpoint Dewpoint Depression Visibility Wind Speed Wind Dir Waves Ship Positions

Milouin

Last reported at 2015-Mar-24 06:13 UTC. Time now 2015-Mar-29 06:14 UTC.
Position N 47°17' W 002°01'.

Length 36 m; draft 2.5 m.

Type: Ship. MMSI: 227003190.

Date/timePositionNaut miles runAvg speedWind from/ knotsBaromVisibWave heightAir tempDewpointWater temp
2015-Mar-24 06:13N 47°17' W 002°01'0 0.0
2015-Mar-24 05:11N 47°17' W 002°01'0 0.0
2015-Mar-24 03:21N 47°17' W 002°01'0 0.0
2015-Mar-24 02:25N 47°17' W 002°01'0 0.0
2015-Mar-24 00:12N 47°17' W 002°01'4 0.2
2015-Mar-23 08:31N 47°18' W 002°06'0 0.0
2015-Mar-23 07:29N 47°18' W 002°06'0 0.0
2015-Mar-23 06:33N 47°18' W 002°06'4 0.1
2015-Mar-21 22:07N 47°17' W 002°01'4 0.3
2015-Mar-21 10:15N 47°18' W 002°07'0 0.0
2015-Mar-21 09:33N 47°18' W 002°07'0 0.1
2015-Mar-21 08:30N 47°18' W 002°07'0 0.0
2015-Mar-21 07:20N 47°18' W 002°07'4 0.1
2015-Mar-19 20:21N 47°17' W 002°01'0 0.0
2015-Mar-19 18:33N 47°17' W 002°01'8 0.8
2015-Mar-19 09:31N 47°15' W 001°51'0 0.3
2015-Mar-19 08:33N 47°14' W 001°51'2 1.7
2015-Mar-19 07:24N 47°16' W 001°52'4 4.7
2015-Mar-19 06:30N 47°17' W 001°58'2 2.1
2015-Mar-19 05:31N 47°17' W 002°01'0 0.0
2015-Mar-19 04:33N 47°17' W 002°01'0 0.0
2015-Mar-19 02:25N 47°17' W 002°01'0 0.0
2015-Mar-19 01:32N 47°17' W 002°01'0 0.0
2015-Mar-19 00:14N 47°17' W 002°01'0 0.0
2015-Mar-18 23:04N 47°17' W 002°01'0 0.0
2015-Mar-18 21:09N 47°17' W 002°01'2 0.2
2015-Mar-18 07:27N 47°18' W 002°04'2 1.7
2015-Mar-18 06:14N 47°17' W 002°01'0 0.0
2015-Mar-18 05:13N 47°17' W 002°01'0 0.0
2015-Mar-18 04:31N 47°17' W 002°01'0 0.0
2015-Mar-18 02:27N 47°17' W 002°01'0 0.0
2015-Mar-18 01:29N 47°17' W 002°01'0 0.0
2015-Mar-18 00:33N 47°17' W 002°01'0 0.0
2015-Mar-17 23:32N 47°17' W 002°01'0 0.0
2015-Mar-17 22:31N 47°17' W 002°01'0 0.0
2015-Mar-17 20:17N 47°17' W 002°01'12 1.0
2015-Mar-17 08:03N 47°12' W 001°46'0 0.0
2015-Mar-17 00:18N 47°12' W 001°46'0 0.0
2015-Mar-16 21:25N 47°12' W 001°46'4 0.3
2015-Mar-16 09:12N 47°12' W 001°41'4 0.8
2015-Mar-16 04:29N 47°12' W 001°46'0 0.0
2015-Mar-16 03:24N 47°12' W 001°46'17 0.4
2015-Mar-14 13:08N 47°18' W 002°09'  

Dump ship's entire track history